sensor_id;sensor_type;location;lat;lon;timestamp;P1;durP1;ratioP1;P2;durP2;ratioP2
25531;SDS011;13429;48.816;9.118;2022-12-24T00:01:53;6.15;;;1.50;;
25531;SDS011;13429;48.816;9.118;2022-12-24T00:04:19;6.57;;;1.58;;
25531;SDS011;13429;48.816;9.118;2022-12-24T00:06:45;5.68;;;1.42;;
25531;SDS011;13429;48.816;9.118;2022-12-24T00:09:11;6.10;;;1.83;;
25531;SDS011;13429;48.816;9.118;2022-12-24T00:11:37;9.73;;;1.42;;
25531;SDS011;13429;48.816;9.118;2022-12-24T00:14:03;6.97;;;1.70;;
25531;SDS011;13429;48.816;9.118;2022-12-24T00:16:29;6.20;;;1.50;;
25531;SDS011;13429;48.816;9.118;2022-12-24T00:18:55;6.43;;;1.63;;
25531;SDS011;13429;48.816;9.118;2022-12-24T00:21:21;5.13;;;1.77;;
25531;SDS011;13429;48.816;9.118;2022-12-24T00:23:47;6.78;;;1.67;;
25531;SDS011;13429;48.816;9.118;2022-12-24T00:26:13;6.97;;;1.80;;
25531;SDS011;13429;48.816;9.118;2022-12-24T00:28:39;6.15;;;1.50;;
25531;SDS011;13429;48.816;9.118;2022-12-24T00:31:07;8.60;;;1.30;;
25531;SDS011;13429;48.816;9.118;2022-12-24T00:33:33;7.63;;;2.17;;
25531;SDS011;13429;48.816;9.118;2022-12-24T00:35:59;6.18;;;1.05;;
25531;SDS011;13429;48.816;9.118;2022-12-24T00:38:25;4.50;;;1.92;;
25531;SDS011;13429;48.816;9.118;2022-12-24T00:40:50;8.20;;;1.58;;
25531;SDS011;13429;48.816;9.118;2022-12-24T00:43:17;7.63;;;2.05;;
25531;SDS011;13429;48.816;9.118;2022-12-24T00:45:43;9.57;;;2.15;;
25531;SDS011;13429;48.816;9.118;2022-12-24T00:48:08;4.90;;;2.03;;
25531;SDS011;13429;48.816;9.118;2022-12-24T00:50:34;12.57;;;1.88;;
25531;SDS011;13429;48.816;9.118;2022-12-24T00:53:00;8.60;;;1.83;;
25531;SDS011;13429;48.816;9.118;2022-12-24T00:55:26;3.83;;;1.30;;
25531;SDS011;13429;48.816;9.118;2022-12-24T00:57:52;12.95;;;1.52;;
25531;SDS011;13429;48.816;9.118;2022-12-24T01:00:19;7.90;;;1.77;;
25531;SDS011;13429;48.816;9.118;2022-12-24T01:02:45;7.22;;;1.73;;
25531;SDS011;13429;48.816;9.118;2022-12-24T01:05:11;5.30;;;1.25;;
25531;SDS011;13429;48.816;9.118;2022-12-24T01:07:37;7.60;;;1.88;;
25531;SDS011;13429;48.816;9.118;2022-12-24T01:10:10;8.73;;;1.92;;
25531;SDS011;13429;48.816;9.118;2022-12-24T01:12:37;10.90;;;2.30;;
25531;SDS011;13429;48.816;9.118;2022-12-24T01:15:03;6.28;;;1.50;;
25531;SDS011;13429;48.816;9.118;2022-12-24T01:17:33;8.25;;;1.63;;
25531;SDS011;13429;48.816;9.118;2022-12-24T01:19:59;5.03;;;1.50;;
25531;SDS011;13429;48.816;9.118;2022-12-24T01:22:25;7.38;;;1.98;;
25531;SDS011;13429;48.816;9.118;2022-12-24T01:24:51;5.47;;;2.13;;
25531;SDS011;13429;48.816;9.118;2022-12-24T01:27:17;6.15;;;1.63;;
25531;SDS011;13429;48.816;9.118;2022-12-24T01:29:43;13.93;;;2.30;;
25531;SDS011;13429;48.816;9.118;2022-12-24T01:32:08;7.40;;;1.80;;
25531;SDS011;13429;48.816;9.118;2022-12-24T01:34:34;9.10;;;1.70;;
25531;SDS011;13429;48.816;9.118;2022-12-24T01:37:00;9.25;;;1.83;;
25531;SDS011;13429;48.816;9.118;2022-12-24T01:39:26;13.98;;;2.30;;
25531;SDS011;13429;48.816;9.118;2022-12-24T01:41:52;9.05;;;2.17;;
25531;SDS011;13429;48.816;9.118;2022-12-24T01:44:45;15.75;;;2.63;;
25531;SDS011;13429;48.816;9.118;2022-12-24T01:47:13;12.32;;;2.70;;
25531;SDS011;13429;48.816;9.118;2022-12-24T01:49:44;15.63;;;3.00;;
25531;SDS011;13429;48.816;9.118;2022-12-24T01:52:16;12.07;;;2.60;;
25531;SDS011;13429;48.816;9.118;2022-12-24T01:54:44;15.60;;;2.85;;
25531;SDS011;13429;48.816;9.118;2022-12-24T01:57:14;12.73;;;2.25;;
25531;SDS011;13429;48.816;9.118;2022-12-24T01:59:43;9.13;;;2.50;;
25531;SDS011;13429;48.816;9.118;2022-12-24T02:02:09;14.32;;;2.50;;
25531;SDS011;13429;48.816;9.118;2022-12-24T02:04:37;17.45;;;3.45;;
25531;SDS011;13429;48.816;9.118;2022-12-24T02:07:04;11.13;;;2.88;;
25531;SDS011;13429;48.816;9.118;2022-12-24T02:09:32;13.23;;;2.95;;
25531;SDS011;13429;48.816;9.118;2022-12-24T02:11:58;17.13;;;2.72;;
25531;SDS011;13429;48.816;9.118;2022-12-24T02:14:25;12.35;;;2.60;;
25531;SDS011;13429;48.816;9.118;2022-12-24T02:21:50;9.63;;;2.42;;
25531;SDS011;13429;48.816;9.118;2022-12-24T02:32:20;11.82;;;2.65;;
25531;SDS011;13429;48.816;9.118;2022-12-24T02:34:55;10.85;;;2.40;;
25531;SDS011;13429;48.816;9.118;2022-12-24T02:37:32;18.15;;;3.65;;
25531;SDS011;13429;48.816;9.118;2022-12-24T02:40:05;13.40;;;3.25;;
25531;SDS011;13429;48.816;9.118;2022-12-24T02:42:34;10.48;;;2.75;;
25531;SDS011;13429;48.816;9.118;2022-12-24T02:45:02;11.87;;;2.53;;
25531;SDS011;13429;48.816;9.118;2022-12-24T02:47:30;10.52;;;2.40;;
25531;SDS011;13429;48.816;9.118;2022-12-24T02:49:58;11.93;;;2.72;;
25531;SDS011;13429;48.816;9.118;2022-12-24T02:52:29;10.35;;;3.00;;
25531;SDS011;13429;48.816;9.118;2022-12-24T02:54:55;8.40;;;2.95;;
25531;SDS011;13429;48.816;9.118;2022-12-24T02:57:26;10.35;;;2.50;;
25531;SDS011;13429;48.816;9.118;2022-12-24T02:59:56;14.45;;;2.25;;
25531;SDS011;13429;48.816;9.118;2022-12-24T03:05:04;13.50;;;2.38;;
25531;SDS011;13429;48.816;9.118;2022-12-24T03:07:37;15.90;;;2.08;;
25531;SDS011;13429;48.816;9.118;2022-12-24T03:12:57;10.95;;;2.28;;
25531;SDS011;13429;48.816;9.118;2022-12-24T03:17:51;7.35;;;1.80;;
25531;SDS011;13429;48.816;9.118;2022-12-24T03:20:19;9.13;;;1.98;;
25531;SDS011;13429;48.816;9.118;2022-12-24T03:22:46;11.45;;;2.75;;
25531;SDS011;13429;48.816;9.118;2022-12-24T03:25:12;8.18;;;2.83;;
25531;SDS011;13429;48.816;9.118;2022-12-24T03:27:38;13.98;;;2.92;;
25531;SDS011;13429;48.816;9.118;2022-12-24T03:30:09;6.07;;;2.00;;
25531;SDS011;13429;48.816;9.118;2022-12-24T03:32:35;10.77;;;2.25;;
25531;SDS011;13429;48.816;9.118;2022-12-24T03:35:01;8.27;;;2.53;;
25531;SDS011;13429;48.816;9.118;2022-12-24T03:37:28;13.95;;;2.40;;
25531;SDS011;13429;48.816;9.118;2022-12-24T03:39:53;9.35;;;2.08;;
25531;SDS011;13429;48.816;9.118;2022-12-24T03:42:20;14.98;;;2.40;;
25531;SDS011;13429;48.816;9.118;2022-12-24T03:44:46;4.88;;;1.80;;
25531;SDS011;13429;48.816;9.118;2022-12-24T03:47:12;7.68;;;2.05;;
25531;SDS011;13429;48.816;9.118;2022-12-24T03:49:38;10.65;;;2.67;;
25531;SDS011;13429;48.816;9.118;2022-12-24T03:52:04;9.63;;;2.10;;
25531;SDS011;13429;48.816;9.118;2022-12-24T03:54:30;12.73;;;2.15;;
25531;SDS011;13429;48.816;9.118;2022-12-24T03:56:56;5.88;;;1.77;;
25531;SDS011;13429;48.816;9.118;2022-12-24T03:59:22;7.72;;;2.30;;
25531;SDS011;13429;48.816;9.118;2022-12-24T04:01:48;13.73;;;2.65;;
25531;SDS011;13429;48.816;9.118;2022-12-24T04:04:14;10.65;;;2.00;;
25531;SDS011;13429;48.816;9.118;2022-12-24T04:06:40;8.00;;;1.73;;
25531;SDS011;13429;48.816;9.118;2022-12-24T04:09:06;10.43;;;2.05;;
25531;SDS011;13429;48.816;9.118;2022-12-24T04:11:32;12.63;;;2.85;;
25531;SDS011;13429;48.816;9.118;2022-12-24T04:13:58;6.80;;;1.80;;
25531;SDS011;13429;48.816;9.118;2022-12-24T04:16:24;12.23;;;2.63;;
25531;SDS011;13429;48.816;9.118;2022-12-24T04:18:50;11.05;;;2.28;;
25531;SDS011;13429;48.816;9.118;2022-12-24T04:21:16;8.05;;;1.83;;
25531;SDS011;13429;48.816;9.118;2022-12-24T04:23:42;7.13;;;2.15;;
25531;SDS011;13429;48.816;9.118;2022-12-24T04:26:09;7.88;;;2.30;;
25531;SDS011;13429;48.816;9.118;2022-12-24T04:28:36;10.00;;;2.20;;
25531;SDS011;13429;48.816;9.118;2022-12-24T04:31:04;7.80;;;1.85;;
25531;SDS011;13429;48.816;9.118;2022-12-24T04:33:30;7.85;;;2.13;;
25531;SDS011;13429;48.816;9.118;2022-12-24T04:35:57;7.63;;;2.22;;
25531;SDS011;13429;48.816;9.118;2022-12-24T04:38:23;8.70;;;2.45;;
25531;SDS011;13429;48.816;9.118;2022-12-24T04:40:56;9.95;;;2.50;;
25531;SDS011;13429;48.816;9.118;2022-12-24T04:43:23;11.63;;;2.33;;
25531;SDS011;13429;48.816;9.118;2022-12-24T04:45:49;5.10;;;1.70;;
25531;SDS011;13429;48.816;9.118;2022-12-24T04:48:15;9.23;;;2.65;;
25531;SDS011;13429;48.816;9.118;2022-12-24T04:50:41;9.95;;;2.33;;
25531;SDS011;13429;48.816;9.118;2022-12-24T04:53:07;6.38;;;2.55;;
25531;SDS011;13429;48.816;9.118;2022-12-24T04:55:33;15.25;;;2.83;;
25531;SDS011;13429;48.816;9.118;2022-12-24T04:57:59;10.57;;;2.50;;
25531;SDS011;13429;48.816;9.118;2022-12-24T05:00:25;8.45;;;2.58;;
25531;SDS011;13429;48.816;9.118;2022-12-24T05:02:51;13.57;;;2.78;;
25531;SDS011;13429;48.816;9.118;2022-12-24T05:05:17;8.82;;;2.05;;
25531;SDS011;13429;48.816;9.118;2022-12-24T05:07:43;14.70;;;2.40;;
25531;SDS011;13429;48.816;9.118;2022-12-24T05:10:09;8.00;;;2.00;;
25531;SDS011;13429;48.816;9.118;2022-12-24T05:12:35;10.10;;;2.50;;
25531;SDS011;13429;48.816;9.118;2022-12-24T05:15:01;16.70;;;2.72;;
25531;SDS011;13429;48.816;9.118;2022-12-24T05:17:28;11.88;;;2.78;;
25531;SDS011;13429;48.816;9.118;2022-12-24T05:19:54;12.05;;;2.17;;
25531;SDS011;13429;48.816;9.118;2022-12-24T05:22:20;5.88;;;1.63;;
25531;SDS011;13429;48.816;9.118;2022-12-24T05:25:04;13.32;;;2.75;;
25531;SDS011;13429;48.816;9.118;2022-12-24T05:27:49;14.35;;;2.83;;
25531;SDS011;13429;48.816;9.118;2022-12-24T05:30:15;10.30;;;2.63;;
25531;SDS011;13429;48.816;9.118;2022-12-24T05:32:41;10.02;;;2.88;;
25531;SDS011;13429;48.816;9.118;2022-12-24T05:35:07;8.63;;;2.15;;
25531;SDS011;13429;48.816;9.118;2022-12-24T05:37:33;10.88;;;2.10;;
25531;SDS011;13429;48.816;9.118;2022-12-24T05:39:59;12.18;;;2.65;;
25531;SDS011;13429;48.816;9.118;2022-12-24T05:42:25;16.27;;;2.63;;
25531;SDS011;13429;48.816;9.118;2022-12-24T05:44:51;11.43;;;2.03;;
25531;SDS011;13429;48.816;9.118;2022-12-24T05:47:17;17.00;;;3.78;;
25531;SDS011;13429;48.816;9.118;2022-12-24T05:49:43;12.07;;;2.53;;
25531;SDS011;13429;48.816;9.118;2022-12-24T05:52:09;14.30;;;3.20;;
25531;SDS011;13429;48.816;9.118;2022-12-24T05:54:35;10.68;;;2.55;;
25531;SDS011;13429;48.816;9.118;2022-12-24T05:57:01;12.02;;;2.25;;
25531;SDS011;13429;48.816;9.118;2022-12-24T05:59:27;9.55;;;1.95;;
25531;SDS011;13429;48.816;9.118;2022-12-24T06:01:53;11.65;;;2.30;;
25531;SDS011;13429;48.816;9.118;2022-12-24T06:04:19;8.73;;;2.72;;
25531;SDS011;13429;48.816;9.118;2022-12-24T06:06:45;14.23;;;2.10;;
25531;SDS011;13429;48.816;9.118;2022-12-24T06:09:11;10.32;;;2.25;;
25531;SDS011;13429;48.816;9.118;2022-12-24T06:11:37;10.43;;;2.78;;
25531;SDS011;13429;48.816;9.118;2022-12-24T06:14:03;7.22;;;2.20;;
25531;SDS011;13429;48.816;9.118;2022-12-24T06:16:29;12.75;;;3.17;;
25531;SDS011;13429;48.816;9.118;2022-12-24T06:18:55;8.15;;;2.17;;
25531;SDS011;13429;48.816;9.118;2022-12-24T06:21:21;12.02;;;2.75;;
25531;SDS011;13429;48.816;9.118;2022-12-24T06:23:47;15.45;;;2.65;;
25531;SDS011;13429;48.816;9.118;2022-12-24T06:26:17;18.05;;;2.70;;
25531;SDS011;13429;48.816;9.118;2022-12-24T06:28:44;8.70;;;2.03;;
25531;SDS011;13429;48.816;9.118;2022-12-24T06:31:11;10.02;;;2.17;;
25531;SDS011;13429;48.816;9.118;2022-12-24T06:33:38;9.20;;;2.20;;
25531;SDS011;13429;48.816;9.118;2022-12-24T06:36:08;13.70;;;2.70;;
25531;SDS011;13429;48.816;9.118;2022-12-24T06:38:34;4.80;;;2.47;;
25531;SDS011;13429;48.816;9.118;2022-12-24T06:41:03;18.33;;;2.10;;
25531;SDS011;13429;48.816;9.118;2022-12-24T06:43:30;13.40;;;2.75;;
25531;SDS011;13429;48.816;9.118;2022-12-24T06:45:58;12.77;;;2.05;;
25531;SDS011;13429;48.816;9.118;2022-12-24T06:48:24;12.07;;;2.05;;
25531;SDS011;13429;48.816;9.118;2022-12-24T06:50:50;10.75;;;1.98;;
25531;SDS011;13429;48.816;9.118;2022-12-24T06:53:16;9.57;;;2.42;;
25531;SDS011;13429;48.816;9.118;2022-12-24T06:55:42;11.02;;;2.63;;
25531;SDS011;13429;48.816;9.118;2022-12-24T06:58:09;16.65;;;2.80;;
25531;SDS011;13429;48.816;9.118;2022-12-24T07:00:35;10.05;;;2.22;;
25531;SDS011;13429;48.816;9.118;2022-12-24T07:03:01;7.80;;;3.22;;
25531;SDS011;13429;48.816;9.118;2022-12-24T07:05:27;10.52;;;2.17;;
25531;SDS011;13429;48.816;9.118;2022-12-24T07:07:53;12.02;;;2.50;;
25531;SDS011;13429;48.816;9.118;2022-12-24T07:10:19;10.50;;;2.55;;
25531;SDS011;13429;48.816;9.118;2022-12-24T07:12:46;9.32;;;2.47;;
25531;SDS011;13429;48.816;9.118;2022-12-24T07:15:12;13.90;;;2.45;;
25531;SDS011;13429;48.816;9.118;2022-12-24T07:17:38;9.63;;;1.95;;
25531;SDS011;13429;48.816;9.118;2022-12-24T07:20:06;7.03;;;1.92;;
25531;SDS011;13429;48.816;9.118;2022-12-24T07:22:32;4.53;;;1.63;;
25531;SDS011;13429;48.816;9.118;2022-12-24T07:24:58;7.43;;;2.10;;
25531;SDS011;13429;48.816;9.118;2022-12-24T07:27:24;12.32;;;2.60;;
25531;SDS011;13429;48.816;9.118;2022-12-24T07:29:50;16.35;;;2.22;;
25531;SDS011;13429;48.816;9.118;2022-12-24T07:32:16;8.02;;;2.03;;
25531;SDS011;13429;48.816;9.118;2022-12-24T07:34:44;9.85;;;2.72;;
25531;SDS011;13429;48.816;9.118;2022-12-24T07:37:10;16.83;;;2.90;;
25531;SDS011;13429;48.816;9.118;2022-12-24T07:39:36;12.75;;;2.33;;
25531;SDS011;13429;48.816;9.118;2022-12-24T07:42:02;10.40;;;2.50;;
25531;SDS011;13429;48.816;9.118;2022-12-24T07:44:31;9.73;;;2.17;;
25531;SDS011;13429;48.816;9.118;2022-12-24T07:46:57;12.93;;;3.13;;
25531;SDS011;13429;48.816;9.118;2022-12-24T07:49:23;15.25;;;2.67;;
25531;SDS011;13429;48.816;9.118;2022-12-24T07:51:49;7.18;;;2.00;;
25531;SDS011;13429;48.816;9.118;2022-12-24T07:54:15;10.77;;;3.35;;
25531;SDS011;13429;48.816;9.118;2022-12-24T07:56:41;8.63;;;2.28;;
25531;SDS011;13429;48.816;9.118;2022-12-24T07:59:08;10.68;;;2.85;;
25531;SDS011;13429;48.816;9.118;2022-12-24T08:01:35;8.52;;;2.22;;
25531;SDS011;13429;48.816;9.118;2022-12-24T08:04:01;13.52;;;2.60;;
25531;SDS011;13429;48.816;9.118;2022-12-24T08:06:27;12.52;;;2.40;;
25531;SDS011;13429;48.816;9.118;2022-12-24T08:08:53;8.32;;;2.17;;
25531;SDS011;13429;48.816;9.118;2022-12-24T08:11:19;11.05;;;2.38;;
25531;SDS011;13429;48.816;9.118;2022-12-24T08:13:45;4.22;;;1.90;;
25531;SDS011;13429;48.816;9.118;2022-12-24T08:16:11;7.10;;;2.22;;
25531;SDS011;13429;48.816;9.118;2022-12-24T08:18:37;10.30;;;2.40;;
25531;SDS011;13429;48.816;9.118;2022-12-24T08:21:07;16.85;;;2.67;;
25531;SDS011;13429;48.816;9.118;2022-12-24T08:23:33;10.50;;;2.55;;
25531;SDS011;13429;48.816;9.118;2022-12-24T08:26:00;15.65;;;3.17;;
25531;SDS011;13429;48.816;9.118;2022-12-24T08:28:26;11.32;;;2.78;;
25531;SDS011;13429;48.816;9.118;2022-12-24T08:30:52;15.55;;;4.05;;
25531;SDS011;13429;48.816;9.118;2022-12-24T08:33:18;10.35;;;3.28;;
25531;SDS011;13429;48.816;9.118;2022-12-24T08:35:48;15.15;;;3.20;;
25531;SDS011;13429;48.816;9.118;2022-12-24T08:38:14;7.63;;;2.20;;
25531;SDS011;13429;48.816;9.118;2022-12-24T08:40:41;10.95;;;3.03;;
25531;SDS011;13429;48.816;9.118;2022-12-24T08:43:07;10.57;;;3.65;;
25531;SDS011;13429;48.816;9.118;2022-12-24T08:45:33;10.82;;;2.70;;
25531;SDS011;13429;48.816;9.118;2022-12-24T08:47:59;18.45;;;2.95;;
25531;SDS011;13429;48.816;9.118;2022-12-24T08:50:25;6.32;;;2.20;;
25531;SDS011;13429;48.816;9.118;2022-12-24T08:52:52;8.38;;;2.22;;
25531;SDS011;13429;48.816;9.118;2022-12-24T08:55:18;7.18;;;2.60;;
25531;SDS011;13429;48.816;9.118;2022-12-24T08:57:44;7.25;;;2.20;;
25531;SDS011;13429;48.816;9.118;2022-12-24T09:00:11;9.07;;;2.42;;
25531;SDS011;13429;48.816;9.118;2022-12-24T09:02:37;9.38;;;2.22;;
25531;SDS011;13429;48.816;9.118;2022-12-24T09:05:03;8.82;;;2.85;;
25531;SDS011;13429;48.816;9.118;2022-12-24T09:07:29;10.55;;;2.53;;
25531;SDS011;13429;48.816;9.118;2022-12-24T09:09:55;11.32;;;2.42;;
25531;SDS011;13429;48.816;9.118;2022-12-24T09:12:21;11.32;;;2.53;;
25531;SDS011;13429;48.816;9.118;2022-12-24T09:14:49;16.50;;;2.72;;
25531;SDS011;13429;48.816;9.118;2022-12-24T09:17:15;14.82;;;2.92;;
25531;SDS011;13429;48.816;9.118;2022-12-24T09:19:41;8.32;;;2.42;;
25531;SDS011;13429;48.816;9.118;2022-12-24T09:22:07;11.82;;;2.25;;
25531;SDS011;13429;48.816;9.118;2022-12-24T09:24:33;9.25;;;3.33;;
25531;SDS011;13429;48.816;9.118;2022-12-24T09:27:00;13.55;;;2.75;;
25531;SDS011;13429;48.816;9.118;2022-12-24T09:29:27;11.27;;;2.53;;
25531;SDS011;13429;48.816;9.118;2022-12-24T09:31:53;11.77;;;3.13;;
25531;SDS011;13429;48.816;9.118;2022-12-24T09:34:20;11.85;;;2.83;;
25531;SDS011;13429;48.816;9.118;2022-12-24T09:36:46;9.52;;;2.97;;
25531;SDS011;13429;48.816;9.118;2022-12-24T09:39:12;10.27;;;2.42;;
25531;SDS011;13429;48.816;9.118;2022-12-24T09:44:18;9.30;;;2.28;;
25531;SDS011;13429;48.816;9.118;2022-12-24T09:46:45;13.45;;;2.88;;
25531;SDS011;13429;48.816;9.118;2022-12-24T09:49:16;16.30;;;2.80;;
25531;SDS011;13429;48.816;9.118;2022-12-24T09:51:48;13.00;;;2.15;;
25531;SDS011;13429;48.816;9.118;2022-12-24T09:56:51;15.25;;;2.78;;
25531;SDS011;13429;48.816;9.118;2022-12-24T09:59:22;15.20;;;2.78;;
25531;SDS011;13429;48.816;9.118;2022-12-24T10:01:50;11.60;;;2.88;;
25531;SDS011;13429;48.816;9.118;2022-12-24T10:04:18;9.82;;;2.90;;
25531;SDS011;13429;48.816;9.118;2022-12-24T10:15:01;13.38;;;2.72;;
25531;SDS011;13429;48.816;9.118;2022-12-24T10:27:49;22.27;;;4.28;;
25531;SDS011;13429;48.816;9.118;2022-12-24T10:30:17;12.52;;;3.17;;
25531;SDS011;13429;48.816;9.118;2022-12-24T10:32:46;11.45;;;2.70;;
25531;SDS011;13429;48.816;9.118;2022-12-24T10:37:38;9.55;;;2.45;;
25531;SDS011;13429;48.816;9.118;2022-12-24T10:40:05;19.80;;;3.25;;
25531;SDS011;13429;48.816;9.118;2022-12-24T10:42:38;16.48;;;3.33;;
25531;SDS011;13429;48.816;9.118;2022-12-24T10:45:08;11.27;;;2.15;;
25531;SDS011;13429;48.816;9.118;2022-12-24T10:47:38;15.63;;;2.67;;
25531;SDS011;13429;48.816;9.118;2022-12-24T10:50:15;21.33;;;2.85;;
25531;SDS011;13429;48.816;9.118;2022-12-24T10:52:43;10.00;;;3.03;;
25531;SDS011;13429;48.816;9.118;2022-12-24T10:57:42;6.95;;;2.03;;
25531;SDS011;13429;48.816;9.118;2022-12-24T11:00:18;16.13;;;3.15;;
25531;SDS011;13429;48.816;9.118;2022-12-24T11:02:45;9.82;;;2.22;;
25531;SDS011;13429;48.816;9.118;2022-12-24T11:05:31;17.20;;;2.95;;
25531;SDS011;13429;48.816;9.118;2022-12-24T11:08:16;12.38;;;2.83;;
25531;SDS011;13429;48.816;9.118;2022-12-24T11:10:53;13.20;;;2.92;;
25531;SDS011;13429;48.816;9.118;2022-12-24T11:15:58;9.13;;;2.85;;
25531;SDS011;13429;48.816;9.118;2022-12-24T11:18:25;17.40;;;4.05;;
25531;SDS011;13429;48.816;9.118;2022-12-24T11:20:51;16.88;;;2.97;;
25531;SDS011;13429;48.816;9.118;2022-12-24T11:23:18;16.00;;;2.40;;
25531;SDS011;13429;48.816;9.118;2022-12-24T11:25:48;12.48;;;3.28;;
25531;SDS011;13429;48.816;9.118;2022-12-24T11:28:22;7.65;;;2.08;;
25531;SDS011;13429;48.816;9.118;2022-12-24T11:33:20;17.52;;;3.92;;
25531;SDS011;13429;48.816;9.118;2022-12-24T11:35:48;6.00;;;2.38;;
25531;SDS011;13429;48.816;9.118;2022-12-24T11:38:16;10.43;;;2.42;;
25531;SDS011;13429;48.816;9.118;2022-12-24T11:40:45;14.23;;;4.75;;
25531;SDS011;13429;48.816;9.118;2022-12-24T11:43:15;36.95;;;13.57;;
25531;SDS011;13429;48.816;9.118;2022-12-24T11:45:54;10.50;;;2.67;;
25531;SDS011;13429;48.816;9.118;2022-12-24T11:51:00;14.20;;;3.15;;
25531;SDS011;13429;48.816;9.118;2022-12-24T11:53:30;12.45;;;2.63;;
25531;SDS011;13429;48.816;9.118;2022-12-24T11:55:59;10.63;;;2.58;;
25531;SDS011;13429;48.816;9.118;2022-12-24T11:58:39;15.57;;;2.88;;
25531;SDS011;13429;48.816;9.118;2022-12-24T12:03:57;11.98;;;2.70;;
25531;SDS011;13429;48.816;9.118;2022-12-24T12:08:50;16.17;;;2.55;;
25531;SDS011;13429;48.816;9.118;2022-12-24T12:11:17;13.13;;;3.83;;
25531;SDS011;13429;48.816;9.118;2022-12-24T12:13:43;16.27;;;6.38;;
25531;SDS011;13429;48.816;9.118;2022-12-24T12:16:13;14.88;;;4.75;;
25531;SDS011;13429;48.816;9.118;2022-12-24T12:18:43;14.82;;;4.28;;
25531;SDS011;13429;48.816;9.118;2022-12-24T12:21:18;12.52;;;2.70;;
25531;SDS011;13429;48.816;9.118;2022-12-24T12:23:49;11.57;;;2.80;;
25531;SDS011;13429;48.816;9.118;2022-12-24T12:28:46;13.98;;;3.83;;
25531;SDS011;13429;48.816;9.118;2022-12-24T12:31:15;11.88;;;3.28;;
25531;SDS011;13429;48.816;9.118;2022-12-24T12:33:48;9.52;;;5.68;;
25531;SDS011;13429;48.816;9.118;2022-12-24T12:36:16;19.30;;;4.97;;
25531;SDS011;13429;48.816;9.118;2022-12-24T12:38:43;17.52;;;3.85;;
25531;SDS011;13429;48.816;9.118;2022-12-24T12:41:20;9.57;;;3.22;;
25531;SDS011;13429;48.816;9.118;2022-12-24T12:48:49;22.92;;;3.55;;
25531;SDS011;13429;48.816;9.118;2022-12-24T12:51:25;15.52;;;3.55;;
25531;SDS011;13429;48.816;9.118;2022-12-24T12:56:25;13.85;;;3.92;;
25531;SDS011;13429;48.816;9.118;2022-12-24T12:58:56;18.95;;;4.32;;
25531;SDS011;13429;48.816;9.118;2022-12-24T13:01:28;23.60;;;5.10;;
25531;SDS011;13429;48.816;9.118;2022-12-24T13:14:26;18.00;;;3.85;;
25531;SDS011;13429;48.816;9.118;2022-12-24T13:21:49;17.88;;;3.20;;
25531;SDS011;13429;48.816;9.118;2022-12-24T13:24:17;9.98;;;2.78;;
25531;SDS011;13429;48.816;9.118;2022-12-24T13:27:05;10.65;;;2.83;;
25531;SDS011;13429;48.816;9.118;2022-12-24T13:34:48;13.18;;;2.90;;
25531;SDS011;13429;48.816;9.118;2022-12-24T13:47:51;9.95;;;2.88;;
25531;SDS011;13429;48.816;9.118;2022-12-24T13:53:02;17.95;;;3.85;;
25531;SDS011;13429;48.816;9.118;2022-12-24T13:55:28;16.02;;;3.17;;
25531;SDS011;13429;48.816;9.118;2022-12-24T13:57:56;15.63;;;2.97;;
25531;SDS011;13429;48.816;9.118;2022-12-24T14:00:25;13.60;;;2.58;;
25531;SDS011;13429;48.816;9.118;2022-12-24T14:05:35;11.18;;;2.63;;
25531;SDS011;13429;48.816;9.118;2022-12-24T14:08:03;10.65;;;2.30;;
25531;SDS011;13429;48.816;9.118;2022-12-24T14:10:30;8.23;;;2.40;;
25531;SDS011;13429;48.816;9.118;2022-12-24T14:12:56;11.32;;;2.30;;
25531;SDS011;13429;48.816;9.118;2022-12-24T14:18:07;10.00;;;2.05;;
25531;SDS011;13429;48.816;9.118;2022-12-24T14:20:34;9.93;;;3.22;;
25531;SDS011;13429;48.816;9.118;2022-12-24T14:23:01;8.20;;;2.55;;
25531;SDS011;13429;48.816;9.118;2022-12-24T14:25:28;13.57;;;2.78;;
25531;SDS011;13429;48.816;9.118;2022-12-24T14:27:57;14.60;;;2.88;;
25531;SDS011;13429;48.816;9.118;2022-12-24T14:30:25;8.40;;;1.95;;
25531;SDS011;13429;48.816;9.118;2022-12-24T14:32:52;13.23;;;2.92;;
25531;SDS011;13429;48.816;9.118;2022-12-24T14:35:19;10.68;;;2.45;;
25531;SDS011;13429;48.816;9.118;2022-12-24T14:38:05;12.25;;;2.50;;
25531;SDS011;13429;48.816;9.118;2022-12-24T14:40:33;14.10;;;3.42;;
25531;SDS011;13429;48.816;9.118;2022-12-24T14:43:15;15.90;;;3.45;;
25531;SDS011;13429;48.816;9.118;2022-12-24T14:45:59;22.80;;;5.90;;
25531;SDS011;13429;48.816;9.118;2022-12-24T14:56:16;13.55;;;3.03;;
25531;SDS011;13429;48.816;9.118;2022-12-24T14:58:43;11.40;;;3.40;;
25531;SDS011;13429;48.816;9.118;2022-12-24T15:01:23;13.18;;;2.90;;
25531;SDS011;13429;48.816;9.118;2022-12-24T15:04:03;13.00;;;3.20;;
25531;SDS011;13429;48.816;9.118;2022-12-24T15:06:33;9.33;;;3.20;;
25531;SDS011;13429;48.816;9.118;2022-12-24T15:09:00;14.10;;;2.90;;
25531;SDS011;13429;48.816;9.118;2022-12-24T15:11:26;9.60;;;2.95;;
25531;SDS011;13429;48.816;9.118;2022-12-24T15:13:53;10.25;;;2.83;;
25531;SDS011;13429;48.816;9.118;2022-12-24T15:16:33;6.22;;;2.10;;
25531;SDS011;13429;48.816;9.118;2022-12-24T15:19:18;7.45;;;2.28;;
25531;SDS011;13429;48.816;9.118;2022-12-24T15:21:45;12.57;;;3.13;;
25531;SDS011;13429;48.816;9.118;2022-12-24T15:24:28;8.85;;;2.33;;
25531;SDS011;13429;48.816;9.118;2022-12-24T15:26:56;4.38;;;1.40;;
25531;SDS011;13429;48.816;9.118;2022-12-24T15:29:24;14.50;;;3.13;;
25531;SDS011;13429;48.816;9.118;2022-12-24T15:31:52;7.57;;;2.47;;
25531;SDS011;13429;48.816;9.118;2022-12-24T15:34:25;10.27;;;3.08;;
25531;SDS011;13429;48.816;9.118;2022-12-24T15:36:52;7.65;;;3.70;;
25531;SDS011;13429;48.816;9.118;2022-12-24T15:39:37;9.50;;;3.22;;
25531;SDS011;13429;48.816;9.118;2022-12-24T15:42:11;11.55;;;4.18;;
25531;SDS011;13429;48.816;9.118;2022-12-24T15:44:59;9.95;;;3.53;;
25531;SDS011;13429;48.816;9.118;2022-12-24T15:47:30;11.82;;;3.35;;
25531;SDS011;13429;48.816;9.118;2022-12-24T15:50:02;11.13;;;4.03;;
25531;SDS011;13429;48.816;9.118;2022-12-24T15:52:29;13.20;;;3.63;;
25531;SDS011;13429;48.816;9.118;2022-12-24T15:54:55;8.50;;;3.17;;
25531;SDS011;13429;48.816;9.118;2022-12-24T15:57:31;16.60;;;4.75;;
25531;SDS011;13429;48.816;9.118;2022-12-24T15:59:57;16.50;;;4.82;;
25531;SDS011;13429;48.816;9.118;2022-12-24T16:04:51;14.73;;;4.15;;
25531;SDS011;13429;48.816;9.118;2022-12-24T16:07:24;12.70;;;3.92;;
25531;SDS011;13429;48.816;9.118;2022-12-24T16:09:50;8.90;;;3.25;;
25531;SDS011;13429;48.816;9.118;2022-12-24T16:12:17;14.68;;;4.25;;
25531;SDS011;13429;48.816;9.118;2022-12-24T16:14:45;20.00;;;6.68;;
25531;SDS011;13429;48.816;9.118;2022-12-24T16:17:15;29.60;;;13.77;;
25531;SDS011;13429;48.816;9.118;2022-12-24T16:19:45;24.80;;;11.97;;
25531;SDS011;13429;48.816;9.118;2022-12-24T16:22:11;34.53;;;12.43;;
25531;SDS011;13429;48.816;9.118;2022-12-24T16:25:38;25.25;;;10.90;;
25531;SDS011;13429;48.816;9.118;2022-12-24T16:27:46;30.02;;;15.05;;
25531;SDS011;13429;48.816;9.118;2022-12-24T16:30:13;31.88;;;13.73;;
25531;SDS011;13429;48.816;9.118;2022-12-24T16:32:39;17.98;;;9.07;;
25531;SDS011;13429;48.816;9.118;2022-12-24T16:35:09;16.30;;;7.03;;
25531;SDS011;13429;48.816;9.118;2022-12-24T16:37:37;14.05;;;6.15;;
25531;SDS011;13429;48.816;9.118;2022-12-24T16:40:03;17.75;;;6.03;;
25531;SDS011;13429;48.816;9.118;2022-12-24T16:42:29;13.80;;;6.47;;
25531;SDS011;13429;48.816;9.118;2022-12-24T16:45:14;16.45;;;6.43;;
25531;SDS011;13429;48.816;9.118;2022-12-24T16:47:40;14.77;;;5.85;;